createdAt,value
2023-05-23T00:01:32.253Z,15.90
2023-05-23T00:06:34.208Z,16.00
2023-05-23T00:11:36.423Z,15.90
2023-05-23T00:16:40.339Z,15.80
2023-05-23T00:21:42.412Z,15.80
2023-05-23T00:26:44.390Z,15.80
2023-05-23T00:31:47.751Z,15.90
2023-05-23T00:36:53.187Z,15.90
2023-05-23T00:41:55.274Z,15.80
2023-05-23T00:47:01.670Z,15.80
2023-05-23T00:52:03.961Z,15.80
2023-05-23T00:57:08.425Z,15.80
2023-05-23T01:02:15.034Z,15.90
2023-05-23T01:07:17.204Z,15.90
2023-05-23T01:12:27.916Z,15.80
2023-05-23T01:17:39.063Z,15.80
2023-05-23T01:23:02.475Z,15.80
2023-05-23T01:28:08.052Z,15.70
2023-05-23T01:33:12.660Z,15.80
2023-05-23T01:38:14.636Z,15.80
2023-05-23T01:43:18.232Z,15.80
2023-05-23T01:48:21.669Z,15.80
2023-05-23T01:53:24.916Z,15.80
2023-05-23T01:58:28.225Z,15.80
2023-05-23T02:03:30.267Z,15.80
2023-05-23T02:08:32.007Z,15.70
2023-05-23T02:13:38.336Z,15.50
2023-05-23T02:18:40.151Z,15.60
2023-05-23T02:23:41.868Z,15.60
2023-05-23T02:28:45.120Z,15.60
2023-05-23T02:33:46.978Z,15.70
2023-05-23T02:38:48.785Z,15.60
2023-05-23T02:43:52.015Z,15.50
2023-05-23T02:48:53.768Z,15.40
2023-05-23T02:53:57.126Z,15.20
2023-05-23T02:59:00.213Z,15.10
2023-05-23T03:04:02.015Z,14.90
2023-05-23T03:09:03.819Z,14.80
2023-05-23T03:14:06.905Z,14.70
2023-05-23T03:19:08.804Z,14.80
2023-05-23T03:24:10.546Z,14.80
2023-05-23T03:29:13.664Z,14.70
2023-05-23T03:34:15.390Z,14.70
2023-05-23T03:39:17.116Z,14.80
2023-05-23T03:44:20.166Z,14.80
2023-05-23T03:49:21.953Z,14.70
2023-05-23T03:54:23.690Z,14.60
2023-05-23T03:59:26.774Z,14.50
2023-05-23T04:04:29.412Z,14.50
2023-05-23T04:09:31.209Z,14.40
2023-05-23T04:14:34.187Z,14.50
2023-05-23T04:19:36.181Z,14.40
2023-05-23T04:24:38.174Z,14.50
2023-05-23T04:29:41.383Z,14.60
2023-05-23T04:34:43.145Z,14.70
2023-05-23T04:39:44.965Z,14.70
2023-05-23T04:44:47.986Z,14.70
2023-05-23T04:49:49.673Z,14.70
2023-05-23T04:54:51.351Z,14.80
2023-05-23T04:59:54.637Z,14.90
2023-05-23T05:04:56.344Z,14.90
2023-05-23T05:10:00.711Z,14.80
2023-05-23T05:15:07.234Z,14.90
2023-05-23T05:20:10.044Z,14.80
2023-05-23T05:25:11.918Z,14.80
2023-05-23T05:30:15.441Z,14.90
2023-05-23T05:35:17.337Z,14.90
2023-05-23T05:40:19.308Z,15.10
2023-05-23T05:45:22.420Z,15.30
2023-05-23T05:50:24.375Z,15.60
2023-05-23T05:55:26.228Z,15.90
2023-05-23T06:00:29.517Z,16.00
2023-05-23T06:05:31.377Z,15.90
2023-05-23T06:10:33.279Z,15.70
2023-05-23T06:15:36.420Z,15.60
2023-05-23T06:20:38.242Z,15.40
2023-05-23T06:25:40.012Z,15.40
2023-05-23T06:30:43.335Z,15.30
2023-05-23T06:35:46.962Z,15.40
2023-05-23T06:40:48.669Z,15.40
2023-05-23T06:45:54.452Z,15.50
2023-05-23T06:50:56.349Z,15.60
2023-05-23T06:55:58.182Z,15.60
2023-05-23T07:01:01.293Z,15.70
2023-05-23T07:06:03.097Z,15.80
2023-05-23T07:11:05.473Z,15.80
2023-05-23T07:16:08.656Z,16.00
2023-05-23T07:21:10.435Z,16.00
2023-05-23T07:26:12.114Z,16.00
2023-05-23T07:31:15.184Z,16.10
2023-05-23T07:36:16.897Z,16.10
2023-05-23T07:41:18.596Z,16.60
2023-05-23T07:46:21.700Z,17.40
2023-05-23T07:51:23.495Z,17.70
2023-05-23T07:56:25.256Z,17.50
2023-05-23T08:01:28.495Z,17.30
2023-05-23T08:06:30.249Z,17.50
2023-05-23T08:11:31.985Z,18.00
2023-05-23T08:16:35.947Z,17.80
2023-05-23T08:21:37.746Z,17.90
2023-05-23T08:26:39.542Z,18.30
2023-05-23T08:31:42.780Z,18.20
2023-05-23T08:36:44.793Z,17.90
2023-05-23T08:41:49.841Z,18.00
2023-05-23T08:46:54.065Z,18.20
2023-05-23T08:52:01.366Z,18.30
2023-05-23T08:57:03.293Z,18.00
2023-05-23T09:02:10.258Z,18.30
2023-05-23T09:07:12.681Z,19.10
2023-05-23T09:12:14.453Z,19.60
2023-05-23T09:17:18.366Z,19.30
2023-05-23T09:22:24.341Z,18.90
2023-05-23T09:27:28.022Z,18.50
2023-05-23T09:32:31.189Z,18.20
2023-05-23T09:37:36.904Z,17.90
2023-05-23T09:42:43.406Z,17.60
2023-05-23T09:47:51.246Z,17.40
2023-05-23T09:52:53.090Z,17.70
2023-05-23T09:57:55.289Z,17.80
2023-05-23T10:03:13.494Z,17.90
2023-05-23T10:08:19.383Z,18.50
2023-05-23T10:13:27.661Z,19.60
2023-05-23T10:18:42.999Z,20.40
2023-05-23T10:23:45.961Z,20.70
2023-05-23T10:28:50.734Z,19.50
2023-05-23T10:34:00.619Z,18.90
2023-05-23T10:39:09.579Z,18.60
2023-05-23T10:44:16.717Z,18.40
2023-05-23T10:49:20.148Z,18.40
2023-05-23T10:54:21.983Z,18.30
2023-05-23T10:59:28.110Z,18.30
2023-05-23T11:04:31.185Z,18.60
2023-05-23T11:09:32.944Z,18.90
2023-05-23T11:14:54.809Z,19.30
2023-05-23T11:20:01.696Z,19.30
2023-05-23T11:25:08.283Z,19.60
2023-05-23T11:30:12.742Z,19.50
2023-05-23T11:35:19.984Z,19.50
2023-05-23T11:40:29.642Z,19.00
2023-05-23T11:45:32.544Z,18.70
2023-05-23T11:50:46.138Z,18.60
2023-05-23T11:55:53.329Z,18.60
2023-05-23T12:01:00.526Z,18.90
2023-05-23T12:06:03.962Z,19.40
2023-05-23T12:11:14.526Z,19.20
2023-05-23T12:16:21.840Z,19.10
2023-05-23T12:21:40.078Z,19.10
2023-05-23T12:26:49.376Z,20.10
2023-05-23T12:31:51.995Z,20.40
2023-05-23T12:37:10.262Z,19.90
2023-05-23T12:42:19.321Z,19.30
2023-05-23T12:47:21.255Z,18.70
2023-05-23T12:52:24.497Z,18.30
2023-05-23T12:57:26.298Z,18.10
2023-05-23T13:02:28.849Z,18.00
2023-05-23T13:07:32.417Z,17.90
2023-05-23T13:12:34.245Z,17.80
2023-05-23T13:17:36.212Z,18.00
2023-05-23T13:22:39.552Z,18.30
2023-05-23T13:27:41.383Z,18.70
2023-05-23T13:32:43.280Z,18.90
2023-05-23T13:37:46.792Z,18.90
2023-05-23T13:42:50.887Z,18.90
2023-05-23T13:47:53.013Z,19.00
2023-05-23T13:52:58.504Z,18.90
2023-05-23T13:58:00.546Z,19.10
2023-05-23T14:03:05.128Z,19.50
2023-05-23T14:08:08.300Z,20.30
2023-05-23T14:13:10.278Z,20.10
2023-05-23T14:18:14.803Z,20.00
2023-05-23T14:23:24.840Z,19.70
2023-05-23T14:28:26.704Z,19.20
2023-05-23T14:33:28.524Z,19.00
2023-05-23T14:38:31.884Z,19.00
2023-05-23T14:43:34.224Z,18.70
2023-05-23T14:48:35.982Z,18.30
2023-05-23T14:53:42.252Z,18.30
2023-05-23T14:58:43.983Z,18.40
2023-05-23T15:03:45.830Z,18.30
2023-05-23T15:08:49.177Z,18.70
2023-05-23T15:13:59.540Z,19.00
2023-05-23T15:19:02.060Z,19.70
2023-05-23T15:24:05.832Z,19.70
2023-05-23T15:29:07.582Z,19.20
2023-05-23T15:34:09.392Z,18.40
2023-05-23T15:39:17.590Z,18.10
2023-05-23T15:44:21.740Z,18.20
2023-05-23T15:49:26.945Z,18.00
2023-05-23T15:54:30.665Z,17.70
2023-05-23T15:59:32.532Z,17.50
2023-05-23T16:04:34.453Z,17.40
2023-05-23T16:09:39.831Z,17.40
2023-05-23T16:14:41.582Z,17.40
2023-05-23T16:19:43.319Z,17.40
2023-05-23T16:24:46.511Z,17.40
2023-05-23T16:29:48.237Z,17.10
2023-05-23T16:34:54.001Z,17.20
2023-05-23T16:39:57.819Z,17.10
2023-05-23T16:45:00.054Z,17.20
2023-05-23T16:50:02.012Z,17.00
2023-05-23T16:55:05.663Z,17.00
2023-05-23T17:00:08.721Z,17.10
2023-05-23T17:05:12.886Z,17.10
2023-05-23T17:10:23.985Z,17.00
2023-05-23T17:15:25.782Z,16.70
2023-05-23T17:20:27.506Z,16.40
2023-05-23T17:25:30.550Z,16.40
2023-05-23T17:30:32.310Z,16.30
2023-05-23T17:35:34.040Z,16.20
2023-05-23T17:40:37.175Z,16.10
2023-05-23T17:45:39.030Z,16.10
2023-05-23T17:50:40.965Z,16.00
2023-05-23T17:55:44.170Z,15.90
2023-05-23T18:00:45.998Z,15.80
2023-05-23T18:05:47.783Z,15.60
2023-05-23T18:10:50.927Z,15.60
2023-05-23T18:15:52.736Z,15.40
2023-05-23T18:20:54.475Z,15.20
2023-05-23T18:25:57.700Z,14.80
2023-05-23T18:30:59.746Z,14.60
2023-05-23T18:36:01.461Z,14.50
2023-05-23T18:41:04.648Z,14.30
2023-05-23T18:46:06.392Z,14.10
2023-05-23T18:51:08.251Z,13.90
2023-05-23T18:56:11.796Z,13.80
2023-05-23T19:01:13.599Z,13.60
2023-05-23T19:06:15.363Z,13.40
2023-05-23T19:11:18.498Z,13.20
2023-05-23T19:16:20.273Z,13.10
2023-05-23T19:21:22.795Z,12.90
2023-05-23T19:26:26.066Z,12.80
2023-05-23T19:31:27.950Z,12.60
2023-05-23T19:36:29.858Z,12.40
2023-05-23T19:41:33.075Z,12.20
2023-05-23T19:46:34.917Z,12.20
2023-05-23T19:51:36.942Z,12.00
2023-05-23T19:56:40.148Z,11.90
2023-05-23T20:01:42.057Z,11.70
2023-05-23T20:06:43.808Z,11.50
2023-05-23T20:11:46.862Z,11.40
2023-05-23T20:16:48.595Z,11.30
2023-05-23T20:21:50.395Z,11.00
2023-05-23T20:26:53.509Z,10.80
2023-05-23T20:31:55.213Z,10.80
2023-05-23T20:36:56.904Z,10.90
2023-05-23T20:41:59.968Z,10.80
2023-05-23T20:47:01.750Z,10.90
2023-05-23T20:52:03.943Z,10.90
2023-05-23T20:57:07.055Z,10.80
2023-05-23T21:02:09.203Z,11.00
2023-05-23T21:07:11.260Z,11.10
2023-05-23T21:12:14.394Z,11.40
2023-05-23T21:17:16.129Z,11.40
2023-05-23T21:22:17.909Z,11.40
2023-05-23T21:27:21.202Z,11.50
2023-05-23T21:32:22.964Z,11.70
2023-05-23T21:37:24.726Z,11.80
2023-05-23T21:42:27.897Z,11.80
2023-05-23T21:47:29.672Z,11.80
2023-05-23T21:52:31.404Z,11.70
2023-05-23T21:57:34.526Z,11.50
2023-05-23T22:02:36.279Z,11.40
2023-05-23T22:07:38.068Z,11.30
2023-05-23T22:12:41.214Z,11.10
2023-05-23T22:17:43.021Z,10.90
2023-05-23T22:22:44.856Z,10.70
2023-05-23T22:27:48.014Z,10.70
2023-05-23T22:32:49.902Z,10.60
2023-05-23T22:37:51.609Z,10.40
2023-05-23T22:42:54.727Z,10.40
2023-05-23T22:47:56.464Z,10.40
2023-05-23T22:52:58.166Z,10.20
2023-05-23T22:58:01.563Z,10.20
2023-05-23T23:03:03.555Z,10.10
2023-05-23T23:08:05.493Z,9.90
2023-05-23T23:13:08.666Z,9.80
2023-05-23T23:18:10.583Z,9.80
2023-05-23T23:23:12.496Z,9.60
2023-05-23T23:28:16.079Z,9.50
2023-05-23T23:33:17.888Z,9.30
2023-05-23T23:38:19.689Z,9.30
2023-05-23T23:43:22.818Z,9.20
2023-05-23T23:48:24.558Z,9.10
2023-05-23T23:53:26.246Z,9.10
2023-05-23T23:58:29.310Z,9.10
